Time;durP1;ratioP1;P1;durP2;ratioP2;P2;SDS_P1;SDS_P2;PMS_P1;PMS_P2;Temp;Humidity;BMP_temperature;BMP_pressure;BME280_temperature;BME280_humidity;BME280_pressure;Samples;Min_cycle;Max_cycle;Signal;HPM_P1;HPM_P2
2023/03/18 00:02:17;;;;;;;7.73;5.67;;;;;;;;;;5096545;28;20445;-75
2023/03/18 00:04:46;;;;;;;7.40;4.70;;;;;;;;;;5091760;28;20463;-74
2023/03/18 00:07:14;;;;;;;9.07;5.80;;;;;;;;;;5093533;28;20537;-74
2023/03/18 00:09:42;;;;;;;8.83;5.50;;;;;;;;;;5096050;28;20726;-73
2023/03/18 00:12:11;;;;;;;7.70;5.33;;;;;;;;;;5097713;28;20656;-73
2023/03/18 00:14:39;;;;;;;7.43;5.33;;;;;;;;;;5096209;28;20448;-73
2023/03/18 00:17:14;;;;;;;8.60;5.17;;;;;;;;;;5094438;28;20475;-72
2023/03/18 00:19:43;;;;;;;6.80;5.60;;;;;;;;;;5096198;28;20526;-72
2023/03/18 00:22:11;;;;;;;6.37;4.90;;;;;;;;;;5098134;28;20538;-73
2023/03/18 00:24:40;;;;;;;7.20;4.90;;;;;;;;;;5087634;28;20522;-73
2023/03/18 00:27:08;;;;;;;8.10;4.67;;;;;;;;;;5091989;28;20535;-74
2023/03/18 00:29:36;;;;;;;5.70;4.67;;;;;;;;;;5094216;28;20479;-73
2023/03/18 00:32:04;;;;;;;6.77;5.40;;;;;;;;;;5095745;28;20776;-73
2023/03/18 00:34:32;;;;;;;8.33;5.20;;;;;;;;;;5094456;28;20453;-73
2023/03/18 00:37:03;;;;;;;6.50;4.70;;;;;;;;;;5096434;28;20833;-73
2023/03/18 00:39:31;;;;;;;8.60;4.50;;;;;;;;;;5087502;28;20447;-73
2023/03/18 00:42:09;;;;;;;6.37;4.93;;;;;;;;;;5093981;28;20448;-73
2023/03/18 00:44:37;;;;;;;8.13;4.97;;;;;;;;;;5093612;28;20535;-72
2023/03/18 00:47:05;;;;;;;8.13;5.60;;;;;;;;;;5096609;28;20435;-74
2023/03/18 00:49:34;;;;;;;5.60;4.60;;;;;;;;;;5096256;28;20932;-71
2023/03/18 00:52:03;;;;;;;8.63;5.50;;;;;;;;;;5095130;28;20455;-73
2023/03/18 00:54:30;;;;;;;7.80;5.33;;;;;;;;;;5080809;28;20460;-73
2023/03/18 00:56:58;;;;;;;9.47;5.37;;;;;;;;;;5097085;28;20522;-72
2023/03/18 00:59:26;;;;;;;6.57;4.80;;;;;;;;;;5097741;28;20540;-73
2023/03/18 01:01:54;;;;;;;7.87;5.20;;;;;;;;;;5097427;28;20485;-73
2023/03/18 01:04:21;;;;;;;8.37;5.00;;;;;;;;;;5097317;28;20463;-73
2023/03/18 01:06:49;;;;;;;6.93;5.37;;;;;;;;;;5088270;28;20456;-73
2023/03/18 01:09:31;;;;;;;8.40;5.17;;;;;;;;;;5096444;28;20456;-74
2023/03/18 01:12:07;;;;;;;12.27;5.60;;;;;;;;;;5113685;28;20472;-72
2023/03/18 01:14:38;;;;;;;6.03;5.03;;;;;;;;;;5090524;28;20454;-74
2023/03/18 01:17:13;;;;;;;7.57;5.30;;;;;;;;;;5108269;28;20471;-73
2023/03/18 01:19:41;;;;;;;6.97;4.77;;;;;;;;;;5097614;28;20729;-72
2023/03/18 01:22:09;;;;;;;6.97;4.97;;;;;;;;;;5097063;28;20456;-73
2023/03/18 01:24:38;;;;;;;7.33;5.30;;;;;;;;;;5097832;28;20460;-73
2023/03/18 01:27:06;;;;;;;8.07;4.90;;;;;;;;;;5097479;28;20455;-73
2023/03/18 01:29:34;;;;;;;6.13;4.33;;;;;;;;;;5097007;28;20479;-73
2023/03/18 01:32:03;;;;;;;11.33;4.77;;;;;;;;;;5097525;28;20440;-72
2023/03/18 01:34:31;;;;;;;7.43;5.30;;;;;;;;;;5096909;28;20497;-73
2023/03/18 01:37:01;;;;;;;7.97;4.93;;;;;;;;;;5098200;28;20680;-72
2023/03/18 01:39:38;;;;;;;7.03;4.50;;;;;;;;;;5098128;28;20535;-72
2023/03/18 01:42:07;;;;;;;6.47;5.50;;;;;;;;;;5097545;28;20459;-72
2023/03/18 01:44:36;;;;;;;6.70;5.13;;;;;;;;;;5097494;28;20474;-72
2023/03/18 01:47:04;;;;;;;6.47;5.50;;;;;;;;;;5097669;28;20723;-73
2023/03/18 01:49:34;;;;;;;7.30;4.70;;;;;;;;;;5097233;28;21080;-73
2023/03/18 01:52:04;;;;;;;8.47;4.73;;;;;;;;;;5097059;28;20463;-73
2023/03/18 01:54:33;;;;;;;7.23;6.10;;;;;;;;;;5097203;28;20549;-71
2023/03/18 01:57:01;;;;;;;8.90;4.43;;;;;;;;;;5097266;28;20570;-73
2023/03/18 01:59:33;;;;;;;5.57;4.20;;;;;;;;;;5097280;28;20463;-73
2023/03/18 02:02:08;;;;;;;7.33;4.87;;;;;;;;;;5097496;28;20521;-73
2023/03/18 02:04:41;;;;;;;7.57;5.00;;;;;;;;;;5097992;28;20875;-73
2023/03/18 02:07:15;;;;;;;9.10;4.67;;;;;;;;;;5097092;28;20451;-73
2023/03/18 02:09:43;;;;;;;8.53;5.53;;;;;;;;;;5097331;28;20496;-73
2023/03/18 02:12:12;;;;;;;7.70;4.70;;;;;;;;;;5097769;28;20459;-72
2023/03/18 02:14:42;;;;;;;7.37;4.60;;;;;;;;;;5096540;28;20451;-72
2023/03/18 02:17:12;;;;;;;7.77;5.30;;;;;;;;;;5097538;28;20726;-73
2023/03/18 02:19:55;;;;;;;6.97;4.33;;;;;;;;;;5096073;28;20459;-73
2023/03/18 02:22:25;;;;;;;5.57;3.80;;;;;;;;;;5097841;28;20546;-73
2023/03/18 02:24:59;;;;;;;7.20;4.60;;;;;;;;;;5097875;28;20448;-72
2023/03/18 02:27:30;;;;;;;6.20;4.13;;;;;;;;;;5090455;28;20450;-73
2023/03/18 02:30:00;;;;;;;8.10;4.60;;;;;;;;;;5097536;28;20459;-74
2023/03/18 02:32:32;;;;;;;6.13;4.50;;;;;;;;;;5096812;28;20550;-74
2023/03/18 02:35:19;;;;;;;5.80;4.50;;;;;;;;;;5096772;28;20448;-73
2023/03/18 02:37:47;;;;;;;8.90;4.33;;;;;;;;;;5096587;28;20809;-73
2023/03/18 02:40:17;;;;;;;6.50;4.40;;;;;;;;;;5096570;28;20780;-73
2023/03/18 02:42:46;;;;;;;7.50;4.53;;;;;;;;;;5097005;28;21062;-73
2023/03/18 02:45:18;;;;;;;6.07;4.63;;;;;;;;;;5097123;28;20455;-73
2023/03/18 02:47:46;;;;;;;5.10;3.90;;;;;;;;;;5096808;28;20444;-72
2023/03/18 02:50:17;;;;;;;6.90;4.00;;;;;;;;;;5097172;28;20761;-72
2023/03/18 02:52:46;;;;;;;6.97;4.57;;;;;;;;;;5096819;28;20459;-72
2023/03/18 02:55:22;;;;;;;6.60;4.40;;;;;;;;;;5096957;28;20452;-72
2023/03/18 02:57:51;;;;;;;7.83;4.33;;;;;;;;;;5097151;28;20491;-72
2023/03/18 03:00:19;;;;;;;5.00;3.90;;;;;;;;;;5096571;28;20439;-72
2023/03/18 03:02:47;;;;;;;6.70;5.00;;;;;;;;;;5096792;28;20517;-72
2023/03/18 03:05:21;;;;;;;5.67;4.10;;;;;;;;;;5096723;28;20463;-72
2023/03/18 03:07:49;;;;;;;6.87;4.60;;;;;;;;;;5097006;28;20479;-72
2023/03/18 03:10:17;;;;;;;5.03;3.77;;;;;;;;;;5096180;28;20454;-71
2023/03/18 03:12:46;;;;;;;6.37;3.67;;;;;;;;;;5099924;28;20459;-72
2023/03/18 03:15:19;;;;;;;5.10;3.63;;;;;;;;;;5099681;28;20463;-72
2023/03/18 03:17:48;;;;;;;5.70;3.60;;;;;;;;;;5099786;28;20580;-71
2023/03/18 03:20:17;;;;;;;5.70;3.70;;;;;;;;;;5099513;28;20447;-71
2023/03/18 03:22:45;;;;;;;6.30;3.40;;;;;;;;;;5100517;28;20448;-72
2023/03/18 03:25:14;;;;;;;4.47;2.83;;;;;;;;;;5100804;28;20455;-71
2023/03/18 03:27:42;;;;;;;6.60;3.83;;;;;;;;;;5100188;28;20864;-72
2023/03/18 03:30:18;;;;;;;5.50;3.40;;;;;;;;;;5099320;28;20487;-71
2023/03/18 03:32:48;;;;;;;7.80;3.77;;;;;;;;;;5098263;28;20797;-71
2023/03/18 03:35:16;;;;;;;3.53;3.10;;;;;;;;;;5099388;28;20470;-73
2023/03/18 03:37:44;;;;;;;6.30;3.27;;;;;;;;;;5099731;28;20487;-71
2023/03/18 03:40:16;;;;;;;7.53;3.80;;;;;;;;;;5100256;28;20452;-72
2023/03/18 03:42:44;;;;;;;6.57;3.70;;;;;;;;;;5099572;28;20468;-71
2023/03/18 03:45:13;;;;;;;8.03;3.70;;;;;;;;;;5100318;28;20946;-72
2023/03/18 03:47:41;;;;;;;6.43;4.13;;;;;;;;;;5100350;28;20509;-72
2023/03/18 03:50:12;;;;;;;5.30;3.90;;;;;;;;;;5099713;28;20447;-72
2023/03/18 03:52:40;;;;;;;6.17;3.97;;;;;;;;;;5099680;28;20459;-72
2023/03/18 03:55:12;;;;;;;4.50;3.70;;;;;;;;;;5099914;28;20535;-71
2023/03/18 03:57:40;;;;;;;7.23;3.93;;;;;;;;;;5099828;28;20760;-72
2023/03/18 04:00:12;;;;;;;5.80;3.17;;;;;;;;;;5098980;28;20806;-72
2023/03/18 04:02:39;;;;;;;5.10;3.97;;;;;;;;;;5099493;28;20535;-72
2023/03/18 04:05:12;;;;;;;5.50;3.60;;;;;;;;;;5099076;28;20455;-72
2023/03/18 04:07:41;;;;;;;5.40;3.83;;;;;;;;;;5098613;28;20923;-72
2023/03/18 04:10:09;;;;;;;6.73;3.77;;;;;;;;;;5098590;28;20737;-73
2023/03/18 04:12:37;;;;;;;8.03;4.00;;;;;;;;;;5098675;28;20479;-72
2023/03/18 04:15:06;;;;;;;6.30;3.70;;;;;;;;;;5097666;28;20540;-72
2023/03/18 04:17:33;;;;;;;6.30;4.97;;;;;;;;;;5098333;28;20479;-72
2023/03/18 04:20:02;;;;;;;6.43;3.50;;;;;;;;;;5099077;28;20455;-73
2023/03/18 04:22:31;;;;;;;7.90;3.67;;;;;;;;;;5098640;28;20538;-73
2023/03/18 04:24:59;;;;;;;10.63;5.10;;;;;;;;;;5084247;28;20790;-72
2023/03/18 04:27:31;;;;;;;8.60;5.40;;;;;;;;;;5096337;28;20495;-73
2023/03/18 04:30:01;;;;;;;7.93;5.67;;;;;;;;;;5092720;28;20749;-73
2023/03/18 04:32:32;;;;;;;8.00;5.00;;;;;;;;;;5076508;28;20461;-73
2023/03/18 04:35:03;;;;;;;7.90;5.90;;;;;;;;;;5083785;28;20470;-73
2023/03/18 04:37:33;;;;;;;7.57;5.20;;;;;;;;;;5096614;28;20483;-72
2023/03/18 04:40:00;;;;;;;6.37;4.70;;;;;;;;;;5096911;28;20889;-71
2023/03/18 04:42:28;;;;;;;7.70;5.47;;;;;;;;;;5097581;28;20474;-73
2023/03/18 04:44:56;;;;;;;6.57;4.90;;;;;;;;;;5098882;28;20509;-73
2023/03/18 04:47:24;;;;;;;12.80;5.20;;;;;;;;;;5097309;28;20554;-73
2023/03/18 04:49:51;;;;;;;8.57;5.70;;;;;;;;;;5097353;28;20490;-73
2023/03/18 04:52:19;;;;;;;13.43;6.50;;;;;;;;;;5098789;28;20460;-73
2023/03/18 04:54:48;;;;;;;9.43;5.40;;;;;;;;;;5096994;28;20516;-73
2023/03/18 04:57:17;;;;;;;8.67;4.67;;;;;;;;;;5097846;28;20499;-73
2023/03/18 04:59:45;;;;;;;7.70;5.40;;;;;;;;;;5095084;28;20809;-74
2023/03/18 05:02:13;;;;;;;7.00;5.40;;;;;;;;;;5098375;28;20993;-73
2023/03/18 05:04:50;;;;;;;13.40;5.97;;;;;;;;;;5098265;28;20448;-73
2023/03/18 05:07:18;;;;;;;11.63;6.20;;;;;;;;;;5097668;28;20451;-73
2023/03/18 05:09:48;;;;;;;10.80;7.10;;;;;;;;;;5098700;28;20448;-73
2023/03/18 05:12:17;;;;;;;9.97;6.57;;;;;;;;;;5097447;28;20486;-73
2023/03/18 05:14:44;;;;;;;11.83;7.57;;;;;;;;;;5097980;28;20517;-73
2023/03/18 05:17:15;;;;;;;9.90;6.17;;;;;;;;;;5092491;28;20515;-73
2023/03/18 05:19:43;;;;;;;11.00;6.43;;;;;;;;;;5097948;28;20458;-73
2023/03/18 05:22:12;;;;;;;12.30;6.83;;;;;;;;;;5097551;28;20563;-73
2023/03/18 05:24:42;;;;;;;10.27;6.80;;;;;;;;;;5097453;28;20911;-73
2023/03/18 05:27:13;;;;;;;8.17;6.40;;;;;;;;;;5096740;28;20447;-72
2023/03/18 05:29:42;;;;;;;12.63;7.23;;;;;;;;;;5097230;28;20479;-73
2023/03/18 05:32:11;;;;;;;9.70;7.10;;;;;;;;;;5095937;28;20442;-73
2023/03/18 05:34:39;;;;;;;12.00;7.23;;;;;;;;;;5090671;28;20458;-73
2023/03/18 05:37:14;;;;;;;16.43;8.17;;;;;;;;;;5096736;28;20484;-74
2023/03/18 05:39:49;;;;;;;12.60;7.60;;;;;;;;;;5097585;28;20450;-73
2023/03/18 05:42:24;;;;;;;10.27;7.67;;;;;;;;;;5096921;28;20467;-73
2023/03/18 05:44:58;;;;;;;9.43;7.30;;;;;;;;;;5096767;28;20451;-73
2023/03/18 05:47:26;;;;;;;10.83;7.27;;;;;;;;;;5096569;28;20459;-73
2023/03/18 05:49:57;;;;;;;15.17;8.60;;;;;;;;;;5088767;28;20453;-73
2023/03/18 05:52:25;;;;;;;11.17;8.00;;;;;;;;;;5076382;28;20467;-73
2023/03/18 05:54:53;;;;;;;14.17;8.40;;;;;;;;;;5076640;28;20498;-71
2023/03/18 05:57:23;;;;;;;12.97;8.30;;;;;;;;;;5076755;28;20503;-73
2023/03/18 05:59:54;;;;;;;12.33;8.57;;;;;;;;;;5076853;28;20791;-73
2023/03/18 06:02:23;;;;;;;15.80;9.70;;;;;;;;;;5076438;28;20876;-73
2023/03/18 06:04:54;;;;;;;14.13;9.87;;;;;;;;;;5076247;28;20456;-74
2023/03/18 06:07:23;;;;;;;13.67;8.90;;;;;;;;;;5068875;28;20463;-73
2023/03/18 06:09:52;;;;;;;16.93;10.90;;;;;;;;;;5075956;28;20456;-73
2023/03/18 06:12:26;;;;;;;15.00;9.67;;;;;;;;;;5076695;28;20472;-73
2023/03/18 06:14:55;;;;;;;13.50;9.43;;;;;;;;;;5077249;28;20448;-73
2023/03/18 06:17:23;;;;;;;14.60;9.87;;;;;;;;;;5075232;28;20492;-74
2023/03/18 06:19:51;;;;;;;15.47;9.80;;;;;;;;;;5077311;28;20448;-73
2023/03/18 06:22:19;;;;;;;15.63;8.83;;;;;;;;;;5067948;28;20449;-73
2023/03/18 06:24:49;;;;;;;16.20;10.90;;;;;;;;;;5075623;28;20444;-73
2023/03/18 06:27:19;;;;;;;14.20;9.80;;;;;;;;;;5076205;28;20468;-73
2023/03/18 06:29:46;;;;;;;12.10;8.63;;;;;;;;;;5079830;28;20556;-73
2023/03/18 06:32:17;;;;;;;15.27;10.20;;;;;;;;;;5076240;28;20530;-73
2023/03/18 06:34:44;;;;;;;16.27;10.47;;;;;;;;;;5079172;28;20452;-73
2023/03/18 06:37:14;;;;;;;16.10;11.50;;;;;;;;;;5093985;28;20910;-73
2023/03/18 06:39:43;;;;;;;18.83;10.57;;;;;;;;;;5094311;28;20455;-73
2023/03/18 06:42:11;;;;;;;13.50;9.43;;;;;;;;;;5089662;28;20881;-72
2023/03/18 06:44:41;;;;;;;15.43;10.23;;;;;;;;;;5092544;28;20440;-74
2023/03/18 06:47:09;;;;;;;12.97;11.00;;;;;;;;;;5088989;28;20452;-72
2023/03/18 06:49:43;;;;;;;18.23;11.17;;;;;;;;;;5097090;28;20451;-72
2023/03/18 06:52:14;;;;;;;17.83;10.00;;;;;;;;;;5093242;28;20520;-74
2023/03/18 06:54:44;;;;;;;23.57;11.70;;;;;;;;;;5091178;28;20536;-74
2023/03/18 06:57:12;;;;;;;14.87;9.77;;;;;;;;;;5094296;28;20716;-73
2023/03/18 06:59:56;;;;;;;16.87;10.57;;;;;;;;;;5096256;28;20451;-73
2023/03/18 07:02:26;;;;;;;16.60;11.77;;;;;;;;;;5095880;28;20444;-73
2023/03/18 07:04:56;;;;;;;13.23;10.03;;;;;;;;;;5093377;28;20858;-73
2023/03/18 07:07:24;;;;;;;18.17;11.03;;;;;;;;;;5091262;28;20701;-73
2023/03/18 07:09:53;;;;;;;17.60;11.70;;;;;;;;;;5095144;28;20435;-73
2023/03/18 07:12:21;;;;;;;15.40;9.90;;;;;;;;;;5089851;28;20443;-73
2023/03/18 07:14:49;;;;;;;18.73;10.90;;;;;;;;;;5099501;28;20903;-73
2023/03/18 07:17:17;;;;;;;19.03;11.43;;;;;;;;;;5099396;28;20791;-72
2023/03/18 07:19:46;;;;;;;17.77;9.80;;;;;;;;;;5085786;28;20460;-73
2023/03/18 07:22:16;;;;;;;14.27;9.50;;;;;;;;;;5099341;28;20491;-73
2023/03/18 07:24:45;;;;;;;20.10;10.53;;;;;;;;;;5092678;28;20464;-73
2023/03/18 07:27:19;;;;;;;21.70;11.07;;;;;;;;;;5078796;28;20468;-73
2023/03/18 07:29:47;;;;;;;16.77;10.80;;;;;;;;;;5078529;28;20453;-73
2023/03/18 07:32:15;;;;;;;18.30;9.33;;;;;;;;;;5078447;28;21010;-73
2023/03/18 07:34:43;;;;;;;20.33;10.43;;;;;;;;;;5077823;28;20849;-73
2023/03/18 07:37:11;;;;;;;17.20;9.80;;;;;;;;;;5086378;28;20440;-73
2023/03/18 07:39:43;;;;;;;17.83;10.40;;;;;;;;;;5100234;28;20562;-73
2023/03/18 07:42:11;;;;;;;12.90;9.20;;;;;;;;;;5098755;28;20452;-73
2023/03/18 07:44:38;;;;;;;13.03;8.80;;;;;;;;;;5097683;28;20463;-73
2023/03/18 07:47:06;;;;;;;16.93;10.13;;;;;;;;;;5097651;28;20464;-73
2023/03/18 07:49:42;;;;;;;16.60;9.13;;;;;;;;;;5097170;28;20444;-72
2023/03/18 07:52:12;;;;;;;15.23;8.53;;;;;;;;;;5090122;28;20781;-74
2023/03/18 07:54:45;;;;;;;14.70;9.03;;;;;;;;;;5092600;28;20899;-74
2023/03/18 07:57:19;;;;;;;11.93;8.20;;;;;;;;;;5098305;28;20562;-73
2023/03/18 07:59:47;;;;;;;15.33;8.20;;;;;;;;;;5097464;28;20482;-73
2023/03/18 08:02:15;;;;;;;13.57;8.20;;;;;;;;;;5098598;28;20459;-74
2023/03/18 08:04:47;;;;;;;14.67;7.90;;;;;;;;;;5098796;28;20701;-73
2023/03/18 08:07:16;;;;;;;10.27;6.57;;;;;;;;;;5094702;28;20513;-73
2023/03/18 08:09:45;;;;;;;13.53;7.20;;;;;;;;;;5084677;28;20441;-74
2023/03/18 08:12:13;;;;;;;16.90;9.90;;;;;;;;;;5078038;28;20864;-73
2023/03/18 08:14:43;;;;;;;15.27;8.83;;;;;;;;;;5099183;28;20805;-74
2023/03/18 08:17:10;;;;;;;8.30;6.03;;;;;;;;;;5098986;28;20454;-75
2023/03/18 08:19:38;;;;;;;9.97;7.40;;;;;;;;;;5092155;28;20480;-74
2023/03/18 08:22:07;;;;;;;12.17;7.03;;;;;;;;;;5075491;28;20433;-74
2023/03/18 08:24:41;;;;;;;14.80;8.17;;;;;;;;;;5077311;28;20476;-74
2023/03/18 08:27:11;;;;;;;9.93;7.70;;;;;;;;;;5077708;28;20452;-74
2023/03/18 08:29:39;;;;;;;11.50;8.27;;;;;;;;;;5077681;28;20437;-74
2023/03/18 08:32:08;;;;;;;13.20;8.40;;;;;;;;;;5081881;28;20879;-73
2023/03/18 08:34:38;;;;;;;10.03;7.30;;;;;;;;;;5097527;28;20570;-74
2023/03/18 08:37:09;;;;;;;11.37;7.70;;;;;;;;;;5097323;28;20430;-74
2023/03/18 08:39:38;;;;;;;17.40;8.27;;;;;;;;;;5087579;28;20468;-74
2023/03/18 08:42:06;;;;;;;13.23;8.30;;;;;;;;;;5082755;28;20537;-74
2023/03/18 08:44:35;;;;;;;14.00;8.80;;;;;;;;;;5096301;28;20537;-74
2023/03/18 08:47:07;;;;;;;11.20;7.97;;;;;;;;;;5091670;28;20470;-74
2023/03/18 08:49:37;;;;;;;15.63;8.10;;;;;;;;;;5096864;28;20460;-74
2023/03/18 08:52:05;;;;;;;9.40;7.20;;;;;;;;;;5089690;28;20459;-74
2023/03/18 08:54:34;;;;;;;12.57;8.90;;;;;;;;;;5086500;28;20475;-73
2023/03/18 08:57:01;;;;;;;16.03;7.57;;;;;;;;;;5096830;28;20455;-74
2023/03/18 08:59:32;;;;;;;10.30;8.17;;;;;;;;;;5102543;28;20569;-74
2023/03/18 09:02:13;;;;;;;10.93;7.90;;;;;;;;;;5109505;28;20451;-74
2023/03/18 09:04:41;;;;;;;12.80;8.33;;;;;;;;;;5082696;28;20468;-74
2023/03/18 09:07:10;;;;;;;12.00;7.70;;;;;;;;;;5077371;28;20433;-74
2023/03/18 09:09:39;;;;;;;14.43;8.63;;;;;;;;;;5104543;28;21196;-74
2023/03/18 09:12:07;;;;;;;14.43;8.53;;;;;;;;;;5095785;28;20459;-74
2023/03/18 09:14:36;;;;;;;14.00;7.43;;;;;;;;;;5097151;28;20478;-74
2023/03/18 09:17:16;;;;;;;12.50;8.90;;;;;;;;;;5097594;28;20458;-74
2023/03/18 09:19:47;;;;;;;13.80;9.57;;;;;;;;;;5096184;28;20495;-74
2023/03/18 09:22:39;;;;;;;13.60;9.90;;;;;;;;;;5095743;28;20440;-74
2023/03/18 09:25:16;;;;;;;14.93;9.80;;;;;;;;;;5096811;28;20573;-73
2023/03/18 09:30:41;;;;;;;13.07;9.07;;;;;;;;;;5099238;28;20439;-74
2023/03/18 09:33:14;;;;;;;13.50;8.47;;;;;;;;;;5091219;28;20452;-74
2023/03/18 09:36:09;;;;;;;14.17;9.37;;;;;;;;;;5085682;28;21093;-74
2023/03/18 09:38:50;;;;;;;12.30;8.50;;;;;;;;;;5091839;28;20961;-72
2023/03/18 09:41:23;;;;;;;10.37;7.87;;;;;;;;;;5098233;28;21044;-74
2023/03/18 09:44:03;;;;;;;13.77;9.67;;;;;;;;;;5084329;28;20456;-74
2023/03/18 09:46:41;;;;;;;13.77;9.17;;;;;;;;;;5094737;28;20499;-74
2023/03/18 09:49:30;;;;;;;12.23;8.50;;;;;;;;;;5100398;28;20455;-73
2023/03/18 09:52:14;;;;;;;12.20;9.30;;;;;;;;;;5103544;28;20485;-75
2023/03/18 09:54:52;;;;;;;13.17;7.03;;;;;;;;;;5099564;28;21053;-74
2023/03/18 09:57:25;;;;;;;12.00;7.80;;;;;;;;;;5094049;28;20509;-73
2023/03/18 10:00:10;;;;;;;11.17;8.07;;;;;;;;;;5090836;28;20484;-74
2023/03/18 10:02:46;;;;;;;12.00;8.87;;;;;;;;;;5097045;28;20459;-73
2023/03/18 10:05:19;;;;;;;11.03;7.30;;;;;;;;;;5100243;28;20494;-75
2023/03/18 10:07:50;;;;;;;12.17;7.80;;;;;;;;;;5102879;28;20467;-75
2023/03/18 10:10:27;;;;;;;15.33;8.33;;;;;;;;;;5100852;28;20875;-75
2023/03/18 10:15:58;;;;;;;10.70;7.60;;;;;;;;;;5074954;28;20436;-76
2023/03/18 10:18:43;;;;;;;18.60;9.23;;;;;;;;;;5082974;28;20629;-75
2023/03/18 10:21:28;;;;;;;11.90;8.00;;;;;;;;;;5101024;28;20454;-76
2023/03/18 10:24:01;;;;;;;11.43;7.73;;;;;;;;;;5120233;28;20486;-76
2023/03/18 10:26:33;;;;;;;11.30;7.97;;;;;;;;;;5100329;28;20452;-74
2023/03/18 10:29:21;;;;;;;15.43;9.07;;;;;;;;;;5096563;28;20453;-75
2023/03/18 10:31:58;;;;;;;8.87;7.80;;;;;;;;;;5084177;28;20860;-76
2023/03/18 10:34:31;;;;;;;11.47;8.30;;;;;;;;;;5101239;28;20449;-74
2023/03/18 10:37:08;;;;;;;12.33;8.40;;;;;;;;;;5098236;28;20584;-75
2023/03/18 10:39:50;;;;;;;13.90;8.77;;;;;;;;;;5101600;28;20531;-75
2023/03/18 10:42:22;;;;;;;14.70;9.40;;;;;;;;;;5099135;28;20457;-75
2023/03/18 10:44:51;;;;;;;13.53;8.67;;;;;;;;;;5098692;28;20947;-75
2023/03/18 10:47:29;;;;;;;12.80;8.20;;;;;;;;;;5098696;28;20542;-76
2023/03/18 10:50:16;;;;;;;14.73;9.60;;;;;;;;;;5099486;28;20894;-75
2023/03/18 10:52:58;;;;;;;13.57;8.90;;;;;;;;;;5099004;28;20471;-76
2023/03/18 10:58:22;;;;;;;10.47;9.40;;;;;;;;;;5088486;28;20441;-75
2023/03/18 11:01:04;;;;;;;12.37;8.03;;;;;;;;;;5089499;28;20442;-75
2023/03/18 11:06:48;;;;;;;11.00;8.13;;;;;;;;;;5082563;28;20486;-76
2023/03/18 11:09:19;;;;;;;12.03;8.93;;;;;;;;;;5083784;28;20452;-76
2023/03/18 11:11:52;;;;;;;10.30;7.80;;;;;;;;;;5082131;28;20444;-75
2023/03/18 11:14:29;;;;;;;9.77;6.67;;;;;;;;;;5080500;28;20456;-75
2023/03/18 11:20:09;;;;;;;6.80;5.50;;;;;;;;;;5074627;28;20885;-75
2023/03/18 11:25:58;;;;;;;8.40;6.33;;;;;;;;;;5076104;28;20447;-74
2023/03/18 11:28:33;;;;;;;8.07;6.10;;;;;;;;;;5097639;28;20479;-76
2023/03/18 11:31:06;;;;;;;15.80;10.53;;;;;;;;;;5087001;28;20717;-74
2023/03/18 11:33:46;;;;;;;8.30;6.00;;;;;;;;;;5096266;28;20844;-74
2023/03/18 11:36:18;;;;;;;9.07;6.43;;;;;;;;;;5096715;28;20503;-75
2023/03/18 11:44:45;;;;;;;8.80;6.03;;;;;;;;;;5082833;28;20452;-74
2023/03/18 11:47:25;;;;;;;8.70;6.23;;;;;;;;;;5091510;28;20459;-76
2023/03/18 11:49:53;;;;;;;8.30;5.80;;;;;;;;;;5101262;28;20517;-74
2023/03/18 11:52:36;;;;;;;10.07;5.40;;;;;;;;;;5097893;28;20458;-74
2023/03/18 11:55:28;;;;;;;6.70;5.40;;;;;;;;;;5095709;28;20548;-75
2023/03/18 11:58:20;;;;;;;7.00;4.07;;;;;;;;;;5076796;28;21121;-74
2023/03/18 12:00:58;;;;;;;4.73;3.80;;;;;;;;;;5080836;28;20946;-76
2023/03/18 12:06:42;;;;;;;7.07;3.63;;;;;;;;;;5094212;28;20515;-73
2023/03/18 12:09:15;;;;;;;6.33;4.10;;;;;;;;;;5096561;28;20443;-74
2023/03/18 12:12:01;;;;;;;5.80;3.00;;;;;;;;;;5095808;28;20466;-73
2023/03/18 12:14:36;;;;;;;4.77;2.63;;;;;;;;;;5068311;28;20544;-73
2023/03/18 12:23:53;;;;;;;5.73;2.63;;;;;;;;;;5084680;28;20474;-73
2023/03/18 12:26:43;;;;;;;3.83;2.27;;;;;;;;;;5069624;28;20466;-73
2023/03/18 12:29:34;;;;;;;5.80;2.77;;;;;;;;;;5084651;28;20447;-73
2023/03/18 12:32:07;;;;;;;5.70;1.97;;;;;;;;;;5082500;28;20550;-75
2023/03/18 12:34:59;;;;;;;6.10;1.97;;;;;;;;;;5095058;28;20475;-74
2023/03/18 12:37:43;;;;;;;4.40;1.77;;;;;;;;;;5087622;28;20475;-73
2023/03/18 12:40:28;;;;;;;4.80;1.40;;;;;;;;;;5085224;28;20486;-74
2023/03/18 12:43:07;;;;;;;6.17;2.30;;;;;;;;;;5094205;28;20467;-74
2023/03/18 12:45:41;;;;;;;7.63;2.20;;;;;;;;;;5110322;28;20459;-74
2023/03/18 12:48:11;;;;;;;5.53;1.63;;;;;;;;;;5108366;28;20451;-74
2023/03/18 12:50:42;;;;;;;2.90;1.30;;;;;;;;;;5093282;28;20918;-72
2023/03/18 12:53:19;;;;;;;3.70;1.80;;;;;;;;;;5091122;28;20857;-73
2023/03/18 12:55:48;;;;;;;3.57;2.10;;;;;;;;;;5087490;28;20455;-73
2023/03/18 12:58:30;;;;;;;4.00;2.70;;;;;;;;;;5090855;28;20452;-74
2023/03/18 13:01:05;;;;;;;6.43;2.63;;;;;;;;;;5093016;28;20479;-74
2023/03/18 13:03:36;;;;;;;3.50;2.50;;;;;;;;;;5098793;28;20474;-73
2023/03/18 13:06:11;;;;;;;4.83;3.30;;;;;;;;;;5071294;28;20843;-73
2023/03/18 13:08:53;;;;;;;5.37;3.13;;;;;;;;;;5088827;28;20458;-73
2023/03/18 13:11:31;;;;;;;6.80;3.33;;;;;;;;;;5097476;28;20752;-72
2023/03/18 13:14:10;;;;;;;8.57;4.80;;;;;;;;;;5099141;28;20870;-73
2023/03/18 13:16:48;;;;;;;6.33;3.20;;;;;;;;;;5089566;28;20945;-74
2023/03/18 13:19:18;;;;;;;5.03;3.00;;;;;;;;;;5094399;28;21027;-74
2023/03/18 13:21:47;;;;;;;8.23;3.30;;;;;;;;;;5094231;28;20520;-74
2023/03/18 13:24:31;;;;;;;8.93;4.70;;;;;;;;;;5093707;28;20739;-74
2023/03/18 13:27:14;;;;;;;8.90;4.20;;;;;;;;;;5093140;28;20463;-72
2023/03/18 13:29:46;;;;;;;6.80;3.90;;;;;;;;;;5075932;28;20439;-73
2023/03/18 13:32:35;;;;;;;4.10;3.07;;;;;;;;;;5083344;28;20458;-74
2023/03/18 13:35:20;;;;;;;5.70;3.80;;;;;;;;;;5094484;28;20451;-75
2023/03/18 13:38:04;;;;;;;7.37;4.63;;;;;;;;;;5065362;28;20724;-75
2023/03/18 13:40:45;;;;;;;9.87;3.83;;;;;;;;;;5093451;28;20926;-73
2023/03/18 13:43:21;;;;;;;6.10;3.30;;;;;;;;;;5109748;28;20477;-73
2023/03/18 13:45:55;;;;;;;8.70;3.00;;;;;;;;;;5104837;28;20458;-73
2023/03/18 13:48:34;;;;;;;4.50;1.47;;;;;;;;;;5098715;28;20968;-73
2023/03/18 13:51:32;;;;;;;4.50;2.40;;;;;;;;;;5078222;28;20529;-74
2023/03/18 13:54:05;;;;;;;6.63;2.63;;;;;;;;;;5079795;28;20434;-73
2023/03/18 13:56:56;;;;;;;4.30;1.90;;;;;;;;;;5093288;28;20475;-73
2023/03/18 13:59:43;;;;;;;5.13;2.90;;;;;;;;;;5093490;28;20500;-73
2023/03/18 14:02:34;;;;;;;6.20;2.57;;;;;;;;;;5092898;28;20444;-73
2023/03/18 14:05:29;;;;;;;5.03;2.37;;;;;;;;;;5085569;28;20464;-74
2023/03/18 14:08:00;;;;;;;7.90;3.10;;;;;;;;;;5093911;28;20927;-74
2023/03/18 14:10:40;;;;;;;6.40;2.60;;;;;;;;;;5071032;28;20548;-74
2023/03/18 14:13:29;;;;;;;6.77;3.00;;;;;;;;;;5080782;28;20735;-74
2023/03/18 14:16:10;;;;;;;5.87;2.73;;;;;;;;;;5091058;28;20451;-75
2023/03/18 14:18:43;;;;;;;5.13;2.30;;;;;;;;;;5084932;28;20475;-75
2023/03/18 14:21:38;;;;;;;7.27;3.07;;;;;;;;;;5092142;28;21016;-74
2023/03/18 14:24:33;;;;;;;4.97;2.47;;;;;;;;;;5076525;28;20880;-74
2023/03/18 14:27:15;;;;;;;8.17;2.70;;;;;;;;;;5087592;28;20467;-74
2023/03/18 14:29:46;;;;;;;6.80;3.23;;;;;;;;;;5089359;28;20453;-74
2023/03/18 14:32:42;;;;;;;4.40;3.07;;;;;;;;;;5094102;28;20466;-73
2023/03/18 14:35:27;;;;;;;3.47;2.07;;;;;;;;;;5075574;28;20455;-74
2023/03/18 14:38:02;;;;;;;3.63;2.33;;;;;;;;;;5091846;28;20542;-72
2023/03/18 14:40:39;;;;;;;5.77;2.57;;;;;;;;;;5090844;28;20590;-73
2023/03/18 14:43:13;;;;;;;4.73;2.93;;;;;;;;;;5098404;28;20482;-73
2023/03/18 14:45:48;;;;;;;8.10;1.87;;;;;;;;;;5097748;28;20455;-73
2023/03/18 14:48:19;;;;;;;6.53;2.97;;;;;;;;;;5105501;28;20476;-73
2023/03/18 14:50:54;;;;;;;4.93;3.07;;;;;;;;;;5087406;28;20512;-72
2023/03/18 14:53:28;;;;;;;5.83;3.03;;;;;;;;;;5081768;28;20851;-72
2023/03/18 14:59:10;;;;;;;6.27;2.90;;;;;;;;;;5088764;28;20459;-73
2023/03/18 15:01:56;;;;;;;9.13;3.13;;;;;;;;;;5094894;28;20496;-73
2023/03/18 15:04:28;;;;;;;6.40;3.67;;;;;;;;;;5083569;28;20549;-72
2023/03/18 15:07:28;;;;;;;4.33;2.73;;;;;;;;;;5089130;28;20469;-73
2023/03/18 15:10:00;;;;;;;5.40;3.30;;;;;;;;;;5090329;28;21086;-72
2023/03/18 15:12:39;;;;;;;7.03;3.53;;;;;;;;;;5093755;28;20459;-72
2023/03/18 15:15:08;;;;;;;5.97;2.90;;;;;;;;;;5097274;28;20499;-74
2023/03/18 15:17:41;;;;;;;5.63;3.97;;;;;;;;;;5096201;28;21003;-72
2023/03/18 15:20:13;;;;;;;5.97;3.53;;;;;;;;;;5095228;28;20483;-72
2023/03/18 15:22:43;;;;;;;5.20;3.23;;;;;;;;;;5094494;28;21059;-72
2023/03/18 15:25:28;;;;;;;6.83;3.27;;;;;;;;;;5096744;28;20456;-72
2023/03/18 15:28:03;;;;;;;6.93;3.40;;;;;;;;;;5089213;28;20450;-74
2023/03/18 15:30:44;;;;;;;9.93;3.47;;;;;;;;;;5097793;28;20451;-74
2023/03/18 15:33:21;;;;;;;6.47;3.20;;;;;;;;;;5077719;28;20455;-74
2023/03/18 15:35:58;;;;;;;5.63;3.20;;;;;;;;;;5095258;28;20439;-73
2023/03/18 15:38:33;;;;;;;7.13;3.20;;;;;;;;;;5095346;28;20517;-74
2023/03/18 15:41:07;;;;;;;3.97;2.97;;;;;;;;;;5095726;28;20467;-72
2023/03/18 15:43:46;;;;;;;5.40;3.93;;;;;;;;;;5094675;28;20759;-72
2023/03/18 15:46:19;;;;;;;7.07;3.10;;;;;;;;;;5097137;28;20486;-73
2023/03/18 15:48:53;;;;;;;6.90;3.33;;;;;;;;;;5097427;28;20497;-74